createdAt,value
2019-03-29T00:01:43.448Z,88.70
2019-03-29T00:04:16.747Z,89.10
2019-03-29T00:06:48.547Z,89.00
2019-03-29T00:09:24.193Z,89.30
2019-03-29T00:11:59.579Z,89.30
2019-03-29T00:14:32.707Z,89.20
2019-03-29T00:17:06.169Z,89.10
2019-03-29T00:19:37.747Z,89.20
2019-03-29T00:22:11.567Z,88.60
2019-03-29T00:24:47.532Z,88.40
2019-03-29T00:27:20.545Z,89.00
2019-03-29T00:29:51.951Z,88.50
2019-03-29T00:32:31.883Z,88.10
2019-03-29T00:35:04.623Z,87.80
2019-03-29T00:37:52.485Z,87.40
2019-03-29T00:40:14.002Z,86.60
2019-03-29T00:42:47.119Z,86.50
2019-03-29T00:45:19.095Z,86.20
2019-03-29T00:47:56.086Z,86.20
2019-03-29T00:50:28.755Z,86.00
2019-03-29T00:53:05.086Z,85.80
2019-03-29T00:55:40.883Z,85.40
2019-03-29T00:58:13.927Z,85.40
2019-03-29T01:00:46.871Z,85.00
2019-03-29T01:03:19.787Z,85.10
2019-03-29T01:05:51.117Z,85.10
2019-03-29T01:08:24.498Z,84.90
2019-03-29T01:10:57.257Z,84.60
2019-03-29T01:13:32.333Z,84.40
2019-03-29T01:16:05.290Z,84.40
2019-03-29T01:18:38.362Z,84.40
2019-03-29T01:21:14.051Z,84.30
2019-03-29T01:23:47.317Z,83.60
2019-03-29T01:26:22.642Z,83.20
2019-03-29T01:28:54.590Z,83.10
2019-03-29T01:31:27.467Z,82.80
2019-03-29T01:33:59.118Z,82.00
2019-03-29T01:36:32.096Z,82.00
2019-03-29T01:39:03.714Z,81.60
2019-03-29T01:41:36.469Z,81.30
2019-03-29T01:44:09.735Z,81.20
2019-03-29T01:46:42.591Z,80.60
2019-03-29T01:49:17.567Z,80.40
2019-03-29T01:51:49.153Z,80.40
2019-03-29T01:54:22.230Z,80.00
2019-03-29T01:56:55.450Z,79.70
2019-03-29T01:59:28.428Z,78.30
2019-03-29T02:02:01.432Z,78.60
2019-03-29T02:04:35.225Z,78.70
2019-03-29T02:07:22.795Z,78.60
2019-03-29T02:09:57.995Z,78.20
2019-03-29T02:12:33.915Z,78.00
2019-03-29T02:15:09.911Z,77.20
2019-03-29T02:17:43.201Z,76.60
2019-03-29T02:20:18.658Z,75.80
2019-03-29T02:22:51.517Z,75.80
2019-03-29T02:25:24.830Z,74.20
2019-03-29T02:27:57.668Z,74.00
2019-03-29T02:30:29.330Z,73.90
2019-03-29T02:33:02.021Z,72.60
2019-03-29T02:35:35.314Z,73.00
2019-03-29T02:38:08.250Z,71.60
2019-03-29T02:40:43.835Z,72.00
2019-03-29T02:43:15.370Z,70.40
2019-03-29T02:45:48.750Z,68.70
2019-03-29T02:48:23.949Z,68.60
2019-03-29T02:50:54.635Z,66.40
2019-03-29T02:53:27.523Z,65.00
2019-03-29T02:56:00.425Z,67.00
2019-03-29T02:58:33.717Z,64.20
2019-03-29T03:01:09.533Z,61.90
2019-03-29T03:03:42.336Z,60.90
2019-03-29T03:06:15.169Z,60.80
2019-03-29T03:08:48.245Z,60.90
2019-03-29T03:11:21.023Z,61.20
2019-03-29T03:13:53.773Z,61.60
2019-03-29T03:16:26.648Z,61.00
2019-03-29T03:18:59.739Z,59.90
2019-03-29T03:21:45.473Z,60.50
2019-03-29T03:24:18.374Z,60.30
2019-03-29T03:26:58.063Z,59.60
2019-03-29T03:32:22.912Z,60.00
2019-03-29T03:34:55.564Z,59.00
2019-03-29T03:37:38.372Z,59.50
2019-03-29T03:40:12.129Z,59.50
2019-03-29T03:42:45.013Z,59.10
2019-03-29T03:45:20.529Z,59.60
2019-03-29T03:47:55.589Z,58.80
2019-03-29T03:50:34.438Z,59.10
2019-03-29T03:53:06.435Z,59.40
2019-03-29T03:55:42.326Z,58.80
2019-03-29T03:58:18.175Z,58.90
2019-03-29T04:00:53.892Z,59.10
2019-03-29T04:03:28.226Z,59.50
2019-03-29T04:06:01.827Z,58.90
2019-03-29T04:08:39.568Z,57.30
2019-03-29T04:11:16.098Z,57.90
2019-03-29T04:13:49.378Z,57.20
2019-03-29T04:16:24.381Z,57.40
2019-03-29T04:18:55.944Z,56.80
2019-03-29T04:21:30.942Z,57.70
2019-03-29T04:24:04.062Z,57.80
2019-03-29T04:26:37.025Z,56.80
2019-03-29T04:29:10.025Z,55.90
2019-03-29T04:31:41.801Z,55.10
2019-03-29T04:34:14.566Z,55.50
2019-03-29T04:36:47.638Z,55.00
2019-03-29T04:39:23.918Z,54.30
2019-03-29T04:41:55.657Z,55.30
2019-03-29T04:44:28.930Z,52.60
2019-03-29T04:47:01.968Z,53.80
2019-03-29T04:49:33.685Z,54.30
2019-03-29T04:52:09.292Z,52.80
2019-03-29T04:54:42.349Z,53.60
2019-03-29T04:57:15.335Z,53.40
2019-03-29T04:59:46.985Z,53.30
2019-03-29T05:02:19.952Z,50.50
2019-03-29T05:04:55.320Z,50.80
2019-03-29T05:07:28.111Z,49.90
2019-03-29T05:10:01.127Z,51.10
2019-03-29T05:12:34.160Z,49.60
2019-03-29T05:15:07.725Z,47.20
2019-03-29T05:17:40.611Z,48.50
2019-03-29T05:20:12.333Z,49.80
2019-03-29T05:22:45.433Z,50.70
2019-03-29T05:25:18.856Z,49.20
2019-03-29T05:27:50.853Z,49.60
2019-03-29T05:30:22.599Z,48.30
2019-03-29T05:32:54.390Z,47.50
2019-03-29T05:35:27.732Z,48.00
2019-03-29T05:38:00.694Z,47.10
2019-03-29T05:40:35.176Z,47.20
2019-03-29T05:43:08.929Z,46.50
2019-03-29T05:45:42.144Z,47.00
2019-03-29T05:48:14.877Z,47.60
2019-03-29T05:50:46.551Z,47.40
2019-03-29T05:53:21.723Z,48.10
2019-03-29T05:55:53.550Z,48.80
2019-03-29T05:58:26.246Z,47.70
2019-03-29T06:00:59.641Z,48.30
2019-03-29T06:03:32.877Z,46.30
2019-03-29T06:06:22.640Z,45.70
2019-03-29T06:09:04.728Z,46.60
2019-03-29T06:11:37.695Z,47.10
2019-03-29T06:14:10.843Z,46.00
2019-03-29T06:16:43.698Z,46.90
2019-03-29T06:19:16.917Z,46.50
2019-03-29T06:21:50.170Z,44.50
2019-03-29T06:24:34.935Z,46.60
2019-03-29T06:27:11.283Z,47.00
2019-03-29T06:29:46.934Z,45.40
2019-03-29T06:32:18.547Z,47.40
2019-03-29T06:34:51.490Z,48.70
2019-03-29T06:37:25.990Z,50.00
2019-03-29T06:39:59.077Z,49.50
2019-03-29T06:42:30.803Z,49.60
2019-03-29T06:45:02.590Z,50.20
2019-03-29T06:47:34.670Z,51.90
2019-03-29T06:50:09.803Z,52.30
2019-03-29T06:52:45.758Z,54.20
2019-03-29T06:55:20.997Z,56.70
2019-03-29T06:57:53.767Z,57.50
2019-03-29T07:00:25.323Z,55.00
2019-03-29T07:02:58.152Z,57.80
2019-03-29T07:05:31.408Z,61.70
2019-03-29T07:08:04.613Z,57.10
2019-03-29T07:10:39.926Z,59.50
2019-03-29T07:13:12.775Z,61.80
2019-03-29T07:15:46.279Z,62.40
2019-03-29T07:18:19.067Z,67.40
2019-03-29T07:20:52.232Z,72.20
2019-03-29T07:23:25.481Z,70.40
2019-03-29T07:25:58.346Z,69.80
2019-03-29T07:28:31.380Z,69.80
2019-03-29T07:31:04.155Z,74.80
2019-03-29T07:33:41.164Z,75.20
2019-03-29T07:36:16.513Z,74.20
2019-03-29T07:38:49.374Z,76.70
2019-03-29T07:41:31.570Z,76.00
2019-03-29T07:43:56.719Z,74.60
2019-03-29T07:46:40.948Z,76.40
2019-03-29T07:49:13.841Z,75.00
2019-03-29T07:51:46.740Z,76.10
2019-03-29T07:54:21.897Z,75.30
2019-03-29T07:56:54.988Z,75.10
2019-03-29T07:59:28.009Z,72.00
2019-03-29T08:01:59.773Z,71.50
2019-03-29T08:04:31.509Z,68.60
2019-03-29T08:07:06.024Z,67.90
2019-03-29T08:09:38.521Z,66.80
2019-03-29T08:12:12.169Z,68.50
2019-03-29T08:14:46.254Z,65.20
2019-03-29T08:17:19.656Z,66.80
2019-03-29T08:20:19.039Z,63.40
2019-03-29T08:22:29.043Z,63.90
2019-03-29T08:25:05.132Z,63.40
2019-03-29T08:27:36.685Z,64.80
2019-03-29T08:30:09.795Z,64.30
2019-03-29T08:32:42.994Z,64.70
2019-03-29T08:35:14.536Z,63.40
2019-03-29T08:37:46.203Z,62.00
2019-03-29T08:40:17.733Z,61.60
2019-03-29T08:42:50.795Z,59.80
2019-03-29T08:45:27.533Z,59.30
2019-03-29T08:48:02.200Z,59.00
2019-03-29T08:50:36.037Z,60.40
2019-03-29T08:53:08.983Z,61.20
2019-03-29T08:55:45.988Z,61.70
2019-03-29T08:58:20.276Z,61.10
2019-03-29T09:00:52.722Z,57.20
2019-03-29T09:03:25.283Z,55.10
2019-03-29T09:05:58.145Z,55.00
2019-03-29T09:08:33.276Z,55.40
2019-03-29T09:11:07.651Z,57.20
2019-03-29T09:13:39.714Z,55.70
2019-03-29T09:16:12.728Z,55.70
2019-03-29T09:18:45.726Z,56.80
2019-03-29T09:21:18.393Z,57.00
2019-03-29T09:23:55.267Z,57.00
2019-03-29T09:26:28.296Z,55.70
2019-03-29T09:29:01.589Z,56.30
2019-03-29T09:31:36.780Z,57.60
2019-03-29T09:34:08.341Z,58.60
2019-03-29T09:36:49.140Z,59.50
2019-03-29T09:39:37.878Z,59.60
2019-03-29T09:42:10.767Z,60.20
2019-03-29T09:44:50.056Z,60.20
2019-03-29T09:47:28.215Z,60.10
2019-03-29T09:50:10.419Z,60.00
2019-03-29T09:52:44.413Z,60.50
2019-03-29T09:55:24.082Z,60.90
2019-03-29T09:57:55.751Z,61.80
2019-03-29T10:00:30.960Z,61.70
2019-03-29T10:03:09.009Z,61.40
2019-03-29T10:05:44.907Z,61.30
2019-03-29T10:08:20.302Z,61.00
2019-03-29T10:10:52.163Z,60.80
2019-03-29T10:13:25.026Z,60.80
2019-03-29T10:15:58.248Z,60.70
2019-03-29T10:18:29.936Z,60.30
2019-03-29T10:21:05.726Z,59.70
2019-03-29T10:23:38.522Z,59.70
2019-03-29T10:26:15.375Z,59.90
2019-03-29T10:28:47.718Z,60.00
2019-03-29T10:31:31.592Z,60.00
2019-03-29T10:33:53.639Z,59.80
2019-03-29T10:36:26.683Z,59.40
2019-03-29T10:39:00.733Z,59.30
2019-03-29T10:41:34.147Z,59.20
2019-03-29T10:44:10.739Z,59.30
2019-03-29T10:46:46.104Z,59.20
2019-03-29T10:49:19.359Z,59.30
2019-03-29T10:51:52.627Z,59.40
2019-03-29T10:54:27.105Z,59.40
2019-03-29T10:56:58.657Z,59.50
2019-03-29T10:59:31.413Z,60.70
2019-03-29T11:02:04.574Z,60.90
2019-03-29T11:04:37.801Z,61.00
2019-03-29T11:07:10.794Z,61.00
2019-03-29T11:09:43.331Z,61.00
2019-03-29T11:12:15.290Z,61.00
2019-03-29T11:15:20.623Z,60.90
2019-03-29T11:17:53.067Z,60.80
2019-03-29T11:20:25.871Z,61.00
2019-03-29T11:22:58.649Z,61.40
2019-03-29T11:25:33.440Z,62.00
2019-03-29T11:28:04.973Z,62.50
2019-03-29T11:30:42.571Z,63.00
2019-03-29T11:33:10.665Z,63.70
2019-03-29T11:35:42.325Z,63.50
2019-03-29T11:38:17.294Z,63.10
2019-03-29T11:40:50.767Z,63.00
2019-03-29T11:43:27.192Z,63.50
2019-03-29T11:45:59.600Z,63.70
2019-03-29T11:48:31.098Z,64.00
2019-03-29T11:51:18.166Z,64.20
2019-03-29T11:53:38.231Z,64.40
2019-03-29T11:56:11.130Z,64.80
2019-03-29T11:58:47.435Z,65.30
2019-03-29T12:01:19.068Z,63.20
2019-03-29T12:03:51.652Z,62.70
2019-03-29T12:06:24.762Z,63.20
2019-03-29T12:09:00.420Z,62.40
2019-03-29T12:11:32.239Z,61.40
2019-03-29T12:14:05.112Z,61.40
2019-03-29T12:16:36.907Z,62.00
2019-03-29T12:19:12.330Z,62.10
2019-03-29T12:21:45.132Z,62.10
2019-03-29T12:24:17.824Z,62.40
2019-03-29T12:26:51.184Z,62.20
2019-03-29T12:29:24.207Z,62.10
2019-03-29T12:31:55.855Z,63.70
2019-03-29T12:34:30.973Z,63.70
2019-03-29T12:37:02.714Z,63.60
2019-03-29T12:39:37.954Z,63.10
2019-03-29T12:42:10.638Z,63.50
2019-03-29T12:44:45.546Z,64.20
2019-03-29T12:47:23.507Z,64.90
2019-03-29T12:49:56.684Z,65.20
2019-03-29T12:52:28.429Z,65.50
2019-03-29T12:55:01.392Z,66.00
2019-03-29T12:57:34.142Z,66.10
2019-03-29T13:00:08.409Z,64.70
2019-03-29T13:02:43.112Z,64.60
2019-03-29T13:05:14.871Z,65.10
2019-03-29T13:07:47.369Z,65.40
2019-03-29T13:10:20.414Z,66.00
2019-03-29T13:12:51.876Z,67.00
2019-03-29T13:15:25.031Z,65.80
2019-03-29T13:17:57.624Z,66.20
2019-03-29T13:20:30.341Z,66.40
2019-03-29T13:23:03.095Z,65.60
2019-03-29T13:25:37.132Z,65.20
2019-03-29T13:28:08.833Z,65.70
2019-03-29T13:30:42.093Z,65.60
2019-03-29T13:33:20.436Z,65.80
2019-03-29T13:35:52.539Z,65.80
2019-03-29T13:38:27.453Z,65.70
2019-03-29T13:41:02.665Z,66.40
2019-03-29T13:43:37.641Z,66.50
2019-03-29T13:46:11.145Z,66.80
2019-03-29T13:48:46.671Z,67.20
2019-03-29T13:51:19.373Z,67.00
2019-03-29T13:53:50.981Z,66.90
2019-03-29T13:56:24.478Z,66.40
2019-03-29T13:58:57.300Z,66.80
2019-03-29T14:01:32.354Z,66.50
2019-03-29T14:04:05.069Z,65.80
2019-03-29T14:06:39.996Z,65.60
2019-03-29T14:09:12.879Z,65.50
2019-03-29T14:11:47.936Z,65.20
2019-03-29T14:14:20.926Z,65.20
2019-03-29T14:16:53.727Z,65.40
2019-03-29T14:19:28.828Z,65.50
2019-03-29T14:22:01.644Z,65.40
2019-03-29T14:24:34.680Z,65.60
2019-03-29T14:27:07.897Z,65.40
2019-03-29T14:29:40.939Z,65.60
2019-03-29T14:32:16.722Z,65.70
2019-03-29T14:34:49.541Z,65.70
2019-03-29T14:37:25.276Z,66.00
2019-03-29T14:40:00.650Z,66.20
2019-03-29T14:42:36.148Z,66.00
2019-03-29T14:45:09.445Z,66.10
2019-03-29T14:47:43.786Z,66.20
2019-03-29T14:50:16.355Z,65.90
2019-03-29T14:52:49.640Z,66.00
2019-03-29T14:55:22.814Z,66.00
2019-03-29T14:57:58.323Z,66.00
2019-03-29T15:00:33.891Z,66.00
2019-03-29T15:03:06.646Z,66.20
2019-03-29T15:05:38.474Z,66.50
2019-03-29T15:08:11.665Z,66.60
2019-03-29T15:10:45.762Z,67.50
2019-03-29T15:13:21.102Z,67.50
2019-03-29T15:15:54.275Z,67.30
2019-03-29T15:18:29.298Z,68.70
2019-03-29T15:21:00.926Z,69.00
2019-03-29T15:23:34.419Z,68.70
2019-03-29T15:26:07.392Z,68.40
2019-03-29T15:28:40.393Z,69.80
2019-03-29T15:31:13.946Z,69.40
2019-03-29T15:33:49.290Z,69.30
2019-03-29T15:36:23.488Z,69.60
2019-03-29T15:38:58.633Z,69.20
2019-03-29T15:41:32.094Z,69.00
2019-03-29T15:44:03.903Z,68.60
2019-03-29T15:46:36.716Z,68.90
2019-03-29T15:49:08.396Z,68.80
2019-03-29T15:51:39.969Z,68.80
2019-03-29T15:54:12.864Z,69.10
2019-03-29T15:56:46.127Z,69.30
2019-03-29T15:59:17.742Z,71.50
2019-03-29T16:01:49.359Z,71.80
2019-03-29T16:04:20.777Z,71.80
2019-03-29T16:06:56.641Z,71.70
2019-03-29T16:09:28.462Z,72.20
2019-03-29T16:12:01.447Z,72.40
2019-03-29T16:14:34.192Z,73.10
2019-03-29T16:17:05.981Z,72.90
2019-03-29T16:19:40.404Z,73.20
2019-03-29T16:22:13.721Z,72.90
2019-03-29T16:24:53.217Z,73.30
2019-03-29T16:27:25.530Z,73.40
2019-03-29T16:29:58.573Z,73.40
2019-03-29T16:32:30.277Z,73.20
2019-03-29T16:35:05.094Z,72.80
2019-03-29T16:37:38.082Z,73.40
2019-03-29T16:40:14.065Z,72.80
2019-03-29T16:42:47.044Z,72.80
2019-03-29T16:45:18.808Z,72.20
2019-03-29T16:47:51.590Z,71.70
2019-03-29T16:50:24.481Z,71.60
2019-03-29T16:52:59.362Z,71.50
2019-03-29T16:55:31.139Z,71.40
2019-03-29T16:58:06.138Z,71.40
2019-03-29T17:00:40.676Z,72.00
2019-03-29T17:03:13.311Z,71.60
2019-03-29T17:05:49.951Z,72.00
2019-03-29T17:08:24.310Z,71.80
2019-03-29T17:10:57.205Z,71.20
2019-03-29T17:13:30.004Z,71.00
2019-03-29T17:16:03.033Z,71.00
2019-03-29T17:18:36.596Z,70.70
2019-03-29T17:21:09.421Z,71.00
2019-03-29T17:23:47.147Z,71.80
2019-03-29T17:26:18.726Z,71.60
2019-03-29T17:28:51.629Z,71.60
2019-03-29T17:31:24.945Z,71.60
2019-03-29T17:33:56.680Z,72.00
2019-03-29T17:36:29.331Z,71.90
2019-03-29T17:39:01.127Z,72.00
2019-03-29T17:41:34.253Z,71.80
2019-03-29T17:44:09.719Z,71.60
2019-03-29T17:46:42.540Z,71.50
2019-03-29T17:49:15.454Z,71.40
2019-03-29T17:51:46.972Z,71.40
2019-03-29T17:54:18.597Z,71.40
2019-03-29T17:56:51.755Z,71.80
2019-03-29T17:59:26.818Z,72.60
2019-03-29T18:02:08.780Z,72.70
2019-03-29T18:04:34.842Z,72.50
2019-03-29T18:07:07.972Z,72.00
2019-03-29T18:09:39.725Z,71.80
2019-03-29T18:12:12.426Z,71.80
2019-03-29T18:14:45.263Z,72.00
2019-03-29T18:17:17.927Z,72.30
2019-03-29T18:19:51.281Z,72.60
2019-03-29T18:22:26.450Z,72.80
2019-03-29T18:24:58.067Z,73.30
2019-03-29T18:27:31.082Z,73.80
2019-03-29T18:30:03.931Z,73.70
2019-03-29T18:32:36.834Z,73.20
2019-03-29T18:35:09.540Z,73.40
2019-03-29T18:37:46.607Z,73.10
2019-03-29T18:40:21.892Z,72.80
2019-03-29T18:42:53.395Z,72.60
2019-03-29T18:45:26.707Z,72.60
2019-03-29T18:47:59.625Z,72.50
2019-03-29T18:50:32.484Z,72.40
2019-03-29T18:53:03.995Z,72.60
2019-03-29T18:55:37.154Z,72.70
2019-03-29T18:58:09.900Z,72.60
2019-03-29T19:00:41.524Z,72.60
2019-03-29T19:03:13.164Z,72.80
2019-03-29T19:05:48.303Z,73.10
2019-03-29T19:08:21.080Z,73.40
2019-03-29T19:10:56.552Z,73.10
2019-03-29T19:13:28.227Z,73.00
2019-03-29T19:16:01.823Z,72.90
2019-03-29T19:18:33.328Z,73.20
2019-03-29T19:21:05.188Z,73.00
2019-03-29T19:23:36.739Z,73.00
2019-03-29T19:26:09.837Z,73.00
2019-03-29T19:28:41.542Z,73.10
2019-03-29T19:31:14.239Z,75.00
2019-03-29T19:33:49.369Z,74.90
2019-03-29T19:36:22.204Z,74.80
2019-03-29T19:38:53.616Z,74.70
2019-03-29T19:41:25.239Z,74.60
2019-03-29T19:43:57.956Z,75.20
2019-03-29T19:46:29.680Z,75.70
2019-03-29T19:49:02.670Z,74.70
2019-03-29T19:51:37.714Z,74.90
2019-03-29T19:54:10.354Z,74.50
2019-03-29T19:56:42.150Z,75.70
2019-03-29T19:59:15.207Z,74.80
2019-03-29T20:01:48.255Z,74.50
2019-03-29T20:04:19.646Z,76.60
2019-03-29T20:06:54.761Z,75.60
2019-03-29T20:09:26.290Z,75.10
2019-03-29T20:11:59.206Z,76.20
2019-03-29T20:14:30.754Z,76.50
2019-03-29T20:17:03.571Z,76.40
2019-03-29T20:19:35.134Z,76.70
2019-03-29T20:22:08.281Z,76.90
2019-03-29T20:24:40.865Z,77.50
2019-03-29T20:27:12.401Z,77.00
2019-03-29T20:29:45.081Z,77.10
2019-03-29T20:32:20.387Z,76.30
2019-03-29T20:34:51.064Z,76.10
2019-03-29T20:37:23.688Z,77.40
2019-03-29T20:39:55.312Z,76.50
2019-03-29T20:42:28.367Z,77.20
2019-03-29T20:44:59.974Z,77.40
2019-03-29T20:47:41.995Z,78.30
2019-03-29T20:50:08.304Z,78.00
2019-03-29T20:52:41.700Z,77.60
2019-03-29T20:55:14.979Z,77.00
2019-03-29T20:57:47.877Z,76.70
2019-03-29T21:00:20.988Z,76.50
2019-03-29T21:02:52.487Z,76.20
2019-03-29T21:05:25.296Z,76.20
2019-03-29T21:07:57.958Z,76.60
2019-03-29T21:10:30.786Z,76.60
2019-03-29T21:13:06.997Z,77.20
2019-03-29T21:15:37.740Z,76.40
2019-03-29T21:18:09.230Z,76.60
2019-03-29T21:20:40.847Z,76.60
2019-03-29T21:23:14.033Z,77.20
2019-03-29T21:25:47.371Z,77.20
2019-03-29T21:28:18.993Z,76.80
2019-03-29T21:30:50.606Z,77.40
2019-03-29T21:33:23.601Z,78.00
2019-03-29T21:35:56.414Z,77.90
2019-03-29T21:38:27.927Z,79.20
2019-03-29T21:41:01.128Z,80.00
2019-03-29T21:43:33.989Z,79.10
2019-03-29T21:46:06.723Z,80.70
2019-03-29T21:48:38.434Z,81.20
2019-03-29T21:51:09.953Z,80.60
2019-03-29T21:53:43.696Z,80.60
2019-03-29T21:56:15.936Z,80.60
2019-03-29T21:58:48.613Z,81.40
2019-03-29T22:01:20.129Z,82.00
2019-03-29T22:03:52.898Z,82.00
2019-03-29T22:06:26.182Z,82.10
2019-03-29T22:08:57.744Z,82.40
2019-03-29T22:11:30.557Z,82.00
2019-03-29T22:14:02.055Z,81.80
2019-03-29T22:16:34.980Z,81.90
2019-03-29T22:19:06.414Z,81.50
2019-03-29T22:21:37.956Z,80.80
2019-03-29T22:24:11.278Z,80.20
2019-03-29T22:26:42.792Z,80.10
2019-03-29T22:29:15.982Z,80.90
2019-03-29T22:31:48.843Z,81.20
2019-03-29T22:34:20.567Z,80.80
2019-03-29T22:36:56.895Z,80.70
2019-03-29T22:39:29.699Z,80.40
2019-03-29T22:42:02.802Z,80.20
2019-03-29T22:44:34.700Z,79.80
2019-03-29T22:47:07.731Z,79.80
2019-03-29T22:49:39.351Z,80.60
2019-03-29T22:52:10.919Z,80.40
2019-03-29T22:54:45.974Z,80.10
2019-03-29T22:57:17.784Z,79.60
2019-03-29T22:59:50.434Z,79.80
2019-03-29T23:02:23.551Z,80.20
2019-03-29T23:04:55.140Z,80.30
2019-03-29T23:07:28.289Z,80.00
2019-03-29T23:09:59.907Z,80.00
2019-03-29T23:12:33.017Z,80.10
2019-03-29T23:15:04.729Z,79.90
2019-03-29T23:17:36.237Z,79.80
2019-03-29T23:20:08.126Z,79.70
2019-03-29T23:22:41.219Z,79.60
2019-03-29T23:25:14.417Z,79.50
2019-03-29T23:27:49.710Z,79.70
2019-03-29T23:30:21.685Z,79.80
2019-03-29T23:32:54.504Z,79.80
2019-03-29T23:35:26.014Z,79.90
2019-03-29T23:38:01.371Z,79.90
2019-03-29T23:40:33.486Z,79.60
2019-03-29T23:43:04.984Z,79.50
2019-03-29T23:45:37.871Z,79.50
2019-03-29T23:48:13.202Z,79.00
2019-03-29T23:50:45.287Z,78.60
2019-03-29T23:53:16.899Z,79.40
2019-03-29T23:55:49.713Z,79.60
2019-03-29T23:58:22.392Z,80.60
